createdAt,value
2023-05-01T00:01:46.929Z,102060.00
2023-05-01T00:03:48.612Z,102060.88
2023-05-01T00:05:50.173Z,102050.38
2023-05-01T00:07:51.615Z,102053.00
2023-05-01T00:09:53.134Z,102048.59
2023-05-01T00:11:54.691Z,102038.09
2023-05-01T00:13:56.179Z,102041.59
2023-05-01T00:15:57.823Z,102037.19
2023-05-01T00:17:59.522Z,102038.94
2023-05-01T00:20:00.988Z,102038.06
2023-05-01T00:22:02.619Z,102028.38
2023-05-01T00:24:04.605Z,102037.16
2023-05-01T00:26:06.110Z,102031.00
2023-05-01T00:28:07.784Z,102032.75
2023-05-01T00:30:09.483Z,102031.00
2023-05-01T00:32:11.239Z,102027.47
2023-05-01T00:34:13.003Z,102020.47
2023-05-01T00:36:14.733Z,102023.97
2023-05-01T00:38:16.179Z,102021.31
2023-05-01T00:40:17.744Z,102026.56
2023-05-01T00:42:19.167Z,102008.16
2023-05-01T00:44:20.622Z,102015.16
2023-05-01T00:46:22.258Z,102011.59
2023-05-01T00:48:24.203Z,102009.84
2023-05-01T00:50:25.787Z,102008.97
2023-05-01T00:52:28.143Z,102008.94
2023-05-01T00:54:29.728Z,102005.44
2023-05-01T00:56:31.271Z,102009.81
2023-05-01T00:58:33.086Z,102005.41
2023-05-01T01:00:34.713Z,102000.16
2023-05-01T01:02:37.127Z,102000.16
2023-05-01T01:04:41.708Z,101997.50
2023-05-01T01:06:55.927Z,101996.63
2023-05-01T01:09:24.914Z,101994.88
2023-05-01T01:11:51.742Z,101999.22
2023-05-01T01:14:00.021Z,101998.34
2023-05-01T01:16:15.898Z,101995.72
2023-05-01T01:18:33.111Z,101991.31
2023-05-01T01:20:45.352Z,101991.31
2023-05-01T01:22:53.087Z,101991.31
2023-05-01T01:25:32.381Z,101988.69
2023-05-01T01:28:01.822Z,101977.25
2023-05-01T01:30:23.877Z,101981.59
2023-05-01T01:33:13.003Z,101975.47
2023-05-01T01:35:24.437Z,101975.44
2023-05-01T01:37:33.430Z,101973.69
2023-05-01T01:40:01.293Z,101965.78
2023-05-01T01:42:09.163Z,101963.16
2023-05-01T01:44:21.220Z,101968.41
2023-05-01T01:46:24.388Z,101957.88
2023-05-01T01:48:36.075Z,101961.38
2023-05-01T01:50:39.267Z,101960.47
2023-05-01T01:52:43.273Z,101960.47
2023-05-01T01:54:52.903Z,101948.22
2023-05-01T01:56:56.744Z,101947.34
2023-05-01T01:59:01.341Z,101939.44
2023-05-01T02:01:04.671Z,101935.94
2023-05-01T02:03:06.658Z,101931.50
2023-05-01T02:05:09.240Z,101929.75
2023-05-01T02:07:14.345Z,101939.38
2023-05-01T02:09:18.989Z,101937.63
2023-05-01T02:11:22.171Z,101935.84
2023-05-01T02:13:24.742Z,101933.22
2023-05-01T02:15:28.023Z,101928.81
2023-05-01T02:17:30.795Z,101933.19
2023-05-01T02:19:33.877Z,101929.69
2023-05-01T02:21:38.430Z,101925.31
2023-05-01T02:23:40.065Z,101922.66
2023-05-01T02:25:43.746Z,101922.66
2023-05-01T02:27:55.162Z,101918.28
2023-05-01T02:29:57.828Z,101915.63
2023-05-01T02:32:00.623Z,101915.63
2023-05-01T02:34:02.118Z,101909.50
2023-05-01T02:36:05.147Z,101918.22
2023-05-01T02:38:06.906Z,101911.22
2023-05-01T02:40:09.127Z,101909.47
2023-05-01T02:42:12.730Z,101908.56
2023-05-01T02:44:16.048Z,101905.06
2023-05-01T02:46:18.745Z,101898.06
2023-05-01T02:48:23.666Z,101895.44
2023-05-01T02:50:26.613Z,101894.50
2023-05-01T02:52:29.267Z,101898.88
2023-05-01T02:54:31.085Z,101888.38
2023-05-01T02:56:32.635Z,101885.72
2023-05-01T02:58:34.683Z,101893.59
2023-05-01T03:00:36.130Z,101888.34
2023-05-01T03:02:38.472Z,101876.97
2023-05-01T03:04:40.281Z,101881.31
2023-05-01T03:06:41.960Z,101872.56
2023-05-01T03:08:43.726Z,101871.69
2023-05-01T03:10:45.309Z,101867.25
2023-05-01T03:12:46.751Z,101868.13
2023-05-01T03:14:48.237Z,101866.34
2023-05-01T03:16:49.828Z,101863.72
2023-05-01T03:18:51.358Z,101864.59
2023-05-01T03:20:53.936Z,101858.47
2023-05-01T03:22:55.749Z,101855.84
2023-05-01T03:24:57.324Z,101855.81
2023-05-01T03:26:58.997Z,101860.16
2023-05-01T03:29:00.513Z,101853.19
2023-05-01T03:31:02.113Z,101853.16
2023-05-01T03:33:03.767Z,101851.38
2023-05-01T03:35:05.865Z,101851.38
2023-05-01T03:37:07.484Z,101847.00
2023-05-01T03:39:09.042Z,101844.38
2023-05-01T03:41:10.599Z,101837.34
2023-05-01T03:43:12.049Z,101838.22
2023-05-01T03:45:13.521Z,101832.09
2023-05-01T03:47:15.005Z,101829.44
2023-05-01T03:49:16.802Z,101827.69
2023-05-01T03:51:18.305Z,101827.66
2023-05-01T03:53:19.896Z,101823.28
2023-05-01T03:55:21.512Z,101824.16
2023-05-01T03:57:26.778Z,101822.41
2023-05-01T03:59:28.255Z,101820.66
2023-05-01T04:01:29.746Z,101819.78
2023-05-01T04:03:31.256Z,101819.75
2023-05-01T04:05:33.480Z,101820.63
2023-05-01T04:07:35.095Z,101817.13
2023-05-01T04:09:36.551Z,101817.13
2023-05-01T04:11:38.007Z,101819.75
2023-05-01T04:13:39.524Z,101824.13
2023-05-01T04:15:44.661Z,101816.25
2023-05-01T04:17:46.612Z,101818.88
2023-05-01T04:19:48.677Z,101818.00
2023-05-01T04:21:50.253Z,101814.50
2023-05-01T04:23:51.777Z,101817.13
2023-05-01T04:25:53.251Z,101813.63
2023-05-01T04:27:54.778Z,101818.00
2023-05-01T04:29:56.985Z,101820.63
2023-05-01T04:31:59.042Z,101814.53
2023-05-01T04:34:01.402Z,101812.78
2023-05-01T04:36:02.943Z,101807.59
2023-05-01T04:38:05.026Z,101807.59
2023-05-01T04:40:08.119Z,101800.63
2023-05-01T04:42:11.311Z,101800.66
2023-05-01T04:44:12.738Z,101804.22
2023-05-01T04:46:14.403Z,101786.78
2023-05-01T04:48:16.046Z,101789.47
2023-05-01T04:50:17.652Z,101786.06
2023-05-01T04:52:19.143Z,101795.72
2023-05-01T04:54:20.620Z,101789.69
2023-05-01T04:56:22.055Z,101788.88
2023-05-01T04:58:25.806Z,101781.06
2023-05-01T05:00:28.049Z,101784.59
2023-05-01T05:02:29.660Z,101779.41
2023-05-01T05:04:31.253Z,101781.16
2023-05-01T05:06:32.719Z,101785.53
2023-05-01T05:08:34.586Z,101784.66
2023-05-01T05:10:36.262Z,101783.78
2023-05-01T05:12:37.759Z,101780.31
2023-05-01T05:14:39.243Z,101782.94
2023-05-01T05:16:40.787Z,101780.34
2023-05-01T05:18:42.330Z,101780.34
2023-05-01T05:20:44.209Z,101775.97
2023-05-01T05:22:45.669Z,101779.50
2023-05-01T05:24:47.089Z,101779.53
2023-05-01T05:26:49.092Z,101778.66
2023-05-01T05:28:51.039Z,101777.78
2023-05-01T05:30:52.994Z,101776.94
2023-05-01T05:32:54.960Z,101773.44
2023-05-01T05:34:56.658Z,101775.19
2023-05-01T05:36:58.195Z,101776.06
2023-05-01T05:38:59.712Z,101770.81
2023-05-01T05:41:01.821Z,101776.06
2023-05-01T05:43:03.285Z,101774.31
2023-05-01T05:45:05.837Z,101773.44
2023-05-01T05:47:07.277Z,101769.91
2023-05-01T05:49:08.723Z,101769.91
2023-05-01T05:51:10.172Z,101771.66
2023-05-01T05:53:11.749Z,101772.53
2023-05-01T05:55:13.176Z,101774.28
2023-05-01T05:57:14.927Z,101769.00
2023-05-01T05:59:17.502Z,101773.44
2023-05-01T06:01:19.164Z,101770.78
2023-05-01T06:03:20.847Z,101769.03
2023-05-01T06:05:22.446Z,101766.38
2023-05-01T06:07:24.311Z,101768.13
2023-05-01T06:09:26.365Z,101761.13
2023-05-01T06:11:27.811Z,101762.00
2023-05-01T06:13:29.601Z,101762.84
2023-05-01T06:15:31.179Z,101762.84
2023-05-01T06:17:32.780Z,101754.94
2023-05-01T06:19:35.964Z,101759.31
2023-05-01T06:21:37.755Z,101756.66
2023-05-01T06:23:39.950Z,101752.28
2023-05-01T06:25:41.432Z,101754.88
2023-05-01T06:27:42.992Z,101759.25
2023-05-01T06:29:44.404Z,101753.06
2023-05-01T06:31:46.101Z,101754.75
2023-05-01T06:33:47.786Z,101750.34
2023-05-01T06:35:49.215Z,101742.44
2023-05-01T06:37:50.683Z,101748.50
2023-05-01T06:39:52.213Z,101743.19
2023-05-01T06:41:53.663Z,101739.63
2023-05-01T06:43:55.772Z,101744.81
2023-05-01T06:45:57.667Z,101740.41
2023-05-01T06:47:59.262Z,101743.84
2023-05-01T06:50:02.839Z,101741.19
2023-05-01T06:52:05.312Z,101735.88
2023-05-01T06:54:06.789Z,101729.69
2023-05-01T06:56:08.772Z,101725.25
2023-05-01T06:58:22.762Z,101724.28
2023-05-01T07:00:25.288Z,101721.56
2023-05-01T07:02:26.955Z,101716.19
2023-05-01T07:04:28.433Z,101712.56
2023-05-01T07:06:29.893Z,101716.91
2023-05-01T07:08:32.144Z,101711.50
2023-05-01T07:10:33.707Z,101712.28
2023-05-01T07:12:35.178Z,101706.00
2023-05-01T07:14:36.682Z,101707.69
2023-05-01T07:16:38.159Z,101707.56
2023-05-01T07:18:39.676Z,101703.06
2023-05-01T07:20:41.145Z,101698.56
2023-05-01T07:22:43.298Z,101704.63
2023-05-01T07:24:44.936Z,101697.47
2023-05-01T07:26:46.471Z,101692.97
2023-05-01T07:28:47.954Z,101693.72
2023-05-01T07:30:49.746Z,101692.75
2023-05-01T07:32:51.250Z,101690.94
2023-05-01T07:34:52.900Z,101694.34
2023-05-01T07:36:54.347Z,101685.44
2023-05-01T07:38:57.610Z,101691.47
2023-05-01T07:40:59.078Z,101689.56
2023-05-01T07:43:01.116Z,101690.28
2023-05-01T07:45:02.577Z,101683.97
2023-05-01T07:47:04.727Z,101693.41
2023-05-01T07:49:06.278Z,101679.97
2023-05-01T07:51:07.727Z,101682.44
2023-05-01T07:53:09.168Z,101680.50
2023-05-01T07:55:10.808Z,101674.94
2023-05-01T07:57:12.236Z,101665.03
2023-05-01T07:59:15.030Z,101670.03
2023-05-01T08:01:16.554Z,101659.16
2023-05-01T08:03:18.151Z,101662.44
2023-05-01T08:05:19.800Z,101658.66
2023-05-01T08:07:21.443Z,101662.88
2023-05-01T08:09:22.884Z,101652.06
2023-05-01T08:11:25.963Z,101654.50
2023-05-01T08:13:27.426Z,101649.09
2023-05-01T08:15:28.880Z,101648.88
2023-05-01T08:17:30.417Z,101653.09
2023-05-01T08:19:32.246Z,101657.38
2023-05-01T08:21:33.703Z,101653.78
2023-05-01T08:23:35.273Z,101648.31
2023-05-01T08:25:36.735Z,101641.97
2023-05-01T08:27:38.819Z,101648.75
2023-05-01T08:29:40.383Z,101644.16
2023-05-01T08:31:43.232Z,101644.81
2023-05-01T08:33:44.957Z,101650.72
2023-05-01T08:35:46.424Z,101643.38
2023-05-01T08:37:47.852Z,101643.88
2023-05-01T08:39:49.350Z,101646.41
2023-05-01T08:41:51.714Z,101646.16
2023-05-01T08:43:53.451Z,101642.41
2023-05-01T08:45:58.626Z,101641.13
2023-05-01T08:48:01.778Z,101640.84
2023-05-01T08:50:04.100Z,101638.84
2023-05-01T08:52:06.577Z,101635.94
2023-05-01T08:54:09.546Z,101636.66
2023-05-01T08:56:13.778Z,101630.22
2023-05-01T08:58:18.396Z,101626.41
2023-05-01T09:00:21.446Z,101619.03
2023-05-01T09:02:23.307Z,101623.16
2023-05-01T09:04:24.887Z,101616.72
2023-05-01T09:06:28.654Z,101613.91
2023-05-01T09:08:30.300Z,101620.81
2023-05-01T09:10:33.562Z,101618.81
2023-05-01T09:12:35.889Z,101624.78
2023-05-01T09:14:38.113Z,101616.69
2023-05-01T09:16:39.710Z,101619.28
2023-05-01T09:18:41.888Z,101621.78
2023-05-01T09:20:43.405Z,101620.69
2023-05-01T09:22:45.075Z,101619.88
2023-05-01T09:24:47.042Z,101625.16
2023-05-01T09:26:48.803Z,101620.97
2023-05-01T09:28:52.059Z,101616.41
2023-05-01T09:30:53.517Z,101623.63
2023-05-01T09:33:12.452Z,101614.78
2023-05-01T09:35:15.315Z,101610.38
2023-05-01T09:37:33.525Z,101613.97
2023-05-01T09:39:35.024Z,101617.91
2023-05-01T09:41:51.334Z,101616.38
2023-05-01T09:43:55.359Z,101615.88
2023-05-01T09:46:09.653Z,101599.34
2023-05-01T09:48:12.051Z,101604.13
2023-05-01T09:50:33.022Z,101607.28
2023-05-01T09:52:34.683Z,101603.50
2023-05-01T09:54:36.701Z,101599.72
2023-05-01T09:56:47.801Z,101594.03
2023-05-01T09:58:51.435Z,101589.53
2023-05-01T10:00:53.081Z,101588.03
2023-05-01T10:02:54.963Z,101591.31
2023-05-01T10:05:00.047Z,101591.63
2023-05-01T10:07:14.704Z,101591.97
2023-05-01T10:09:27.856Z,101595.81
2023-05-01T10:11:29.461Z,101588.56
2023-05-01T10:13:31.532Z,101588.34
2023-05-01T10:15:36.602Z,101585.38
2023-05-01T10:17:42.368Z,101582.56
2023-05-01T10:19:43.860Z,101576.41
2023-05-01T10:21:45.537Z,101570.00
2023-05-01T10:23:46.976Z,101578.34
2023-05-01T10:25:52.385Z,101571.66
2023-05-01T10:27:54.592Z,101574.59
2023-05-01T10:29:56.617Z,101577.53
2023-05-01T10:31:59.786Z,101575.75
2023-05-01T10:34:02.141Z,101578.56
2023-05-01T10:36:04.482Z,101570.34
2023-05-01T10:38:10.164Z,101574.69
2023-05-01T10:40:39.357Z,101564.84
2023-05-01T10:43:16.026Z,101565.94
2023-05-01T10:45:30.962Z,101567.53
2023-05-01T10:47:34.629Z,101566.06
2023-05-01T10:50:04.511Z,101554.59
2023-05-01T10:52:06.625Z,101562.75
2023-05-01T10:54:23.677Z,101553.25
2023-05-01T10:56:25.639Z,101551.13
2023-05-01T10:58:52.960Z,101545.97
2023-05-01T11:01:31.524Z,101539.84
2023-05-01T11:03:32.956Z,101537.44
2023-05-01T11:06:05.578Z,101530.63
2023-05-01T11:08:29.334Z,101534.53
2023-05-01T11:10:31.755Z,101529.69
2023-05-01T11:12:45.241Z,101520.69
2023-05-01T11:14:57.310Z,101527.16
2023-05-01T11:16:59.037Z,101522.75
2023-05-01T11:19:00.773Z,101522.25
2023-05-01T11:21:02.610Z,101523.81
2023-05-01T11:23:04.145Z,101524.16
2023-05-01T11:25:22.852Z,101525.94
2023-05-01T11:27:24.430Z,101516.06
2023-05-01T11:29:32.820Z,101510.31
2023-05-01T11:31:34.680Z,101507.19
2023-05-01T11:33:36.911Z,101501.56
2023-05-01T11:35:38.903Z,101505.06
2023-05-01T11:37:46.800Z,101515.44
2023-05-01T11:39:53.266Z,101500.22
2023-05-01T11:42:07.162Z,101502.88
2023-05-01T11:44:11.382Z,101500.03
2023-05-01T11:46:13.657Z,101496.44
2023-05-01T11:48:18.314Z,101503.44
2023-05-01T11:50:21.925Z,101498.41
2023-05-01T11:52:23.437Z,101493.47
2023-05-01T11:54:24.948Z,101483.94
2023-05-01T11:56:27.677Z,101483.56
2023-05-01T11:58:34.147Z,101486.13
2023-05-01T12:00:38.154Z,101479.59
2023-05-01T12:02:39.745Z,101478.66
2023-05-01T12:04:42.692Z,101483.06
2023-05-01T12:06:45.978Z,101474.59
2023-05-01T12:08:51.205Z,101473.31
2023-05-01T12:10:56.368Z,101471.38
2023-05-01T12:12:57.940Z,101477.25
2023-05-01T12:14:59.883Z,101468.56
2023-05-01T12:17:03.619Z,101471.78
2023-05-01T12:19:05.294Z,101464.03
2023-05-01T12:21:15.955Z,101467.06
2023-05-01T12:23:19.961Z,101460.38
2023-05-01T12:25:21.530Z,101460.63
2023-05-01T12:27:23.208Z,101457.25
2023-05-01T12:29:24.762Z,101454.66
2023-05-01T12:31:27.480Z,101451.13
2023-05-01T12:33:29.096Z,101446.53
2023-05-01T12:35:30.866Z,101446.97
2023-05-01T12:37:32.862Z,101445.19
2023-05-01T12:39:42.572Z,101436.16
2023-05-01T12:41:46.404Z,101439.66
2023-05-01T12:43:47.941Z,101446.19
2023-05-01T12:45:53.599Z,101439.19
2023-05-01T12:47:55.566Z,101435.19
2023-05-01T12:50:03.314Z,101435.75
2023-05-01T12:52:07.790Z,101428.22
2023-05-01T12:54:09.721Z,101427.03
2023-05-01T12:56:22.887Z,101422.06
2023-05-01T12:58:35.056Z,101426.88
2023-05-01T13:00:53.600Z,101428.16
2023-05-01T13:02:55.136Z,101425.88
2023-05-01T13:05:07.248Z,101410.91
2023-05-01T13:07:13.149Z,101412.69
2023-05-01T13:09:16.906Z,101411.09
2023-05-01T13:11:18.393Z,101414.34
2023-05-01T13:13:28.011Z,101419.50
2023-05-01T13:15:29.612Z,101418.13
2023-05-01T13:17:32.814Z,101408.47
2023-05-01T13:19:35.159Z,101416.16
2023-05-01T13:21:36.826Z,101406.31
2023-05-01T13:23:39.001Z,101412.72
2023-05-01T13:25:40.810Z,101411.06
2023-05-01T13:27:48.599Z,101419.00
2023-05-01T13:29:58.985Z,101411.09
2023-05-01T13:32:01.540Z,101410.41
2023-05-01T13:34:04.356Z,101410.31
2023-05-01T13:36:14.272Z,101408.59
2023-05-01T13:38:25.063Z,101407.53
2023-05-01T13:40:27.744Z,101407.81
2023-05-01T13:42:29.284Z,101406.97
2023-05-01T13:44:32.228Z,101407.44
2023-05-01T13:46:42.343Z,101402.94
2023-05-01T13:48:44.400Z,101402.06
2023-05-01T13:50:46.134Z,101401.97
2023-05-01T13:52:48.426Z,101403.50
2023-05-01T13:54:53.500Z,101406.00
2023-05-01T13:56:54.980Z,101408.97
2023-05-01T13:58:56.441Z,101397.19
2023-05-01T14:00:58.095Z,101400.41
2023-05-01T14:03:00.019Z,101395.22
2023-05-01T14:05:02.067Z,101395.53
2023-05-01T14:07:03.654Z,101391.81
2023-05-01T14:09:05.708Z,101384.78
2023-05-01T14:11:08.584Z,101377.50
2023-05-01T14:13:10.060Z,101387.34
2023-05-01T14:15:13.126Z,101375.44
2023-05-01T14:17:15.399Z,101380.34
2023-05-01T14:19:18.403Z,101371.59
2023-05-01T14:21:20.458Z,101369.66
2023-05-01T14:23:23.074Z,101376.56
2023-05-01T14:25:28.456Z,101376.06
2023-05-01T14:27:30.211Z,101373.88
2023-05-01T14:29:32.133Z,101371.84
2023-05-01T14:31:33.744Z,101368.66
2023-05-01T14:33:41.805Z,101377.06
2023-05-01T14:35:51.067Z,101372.75
2023-05-01T14:37:52.664Z,101372.25
2023-05-01T14:39:54.130Z,101366.38
2023-05-01T14:41:58.186Z,101374.44
2023-05-01T14:44:00.844Z,101378.00
2023-05-01T14:46:02.657Z,101375.50
2023-05-01T14:48:04.503Z,101381.72
2023-05-01T14:50:06.824Z,101382.38
2023-05-01T14:52:09.533Z,101376.34
2023-05-01T14:54:14.146Z,101377.78
2023-05-01T14:56:15.676Z,101375.66
2023-05-01T14:58:17.237Z,101375.09
2023-05-01T15:00:19.048Z,101374.78
2023-05-01T15:02:20.563Z,101381.03
2023-05-01T15:04:22.292Z,101377.75
2023-05-01T15:06:24.794Z,101380.97
2023-05-01T15:08:26.506Z,101378.31
2023-05-01T15:10:29.500Z,101379.19
2023-05-01T15:12:30.975Z,101384.63
2023-05-01T15:14:32.434Z,101377.31
2023-05-01T15:16:33.967Z,101378.94
2023-05-01T15:18:36.516Z,101375.41
2023-05-01T15:20:38.008Z,101378.09
2023-05-01T15:22:40.977Z,101380.09
2023-05-01T15:24:42.670Z,101376.34
2023-05-01T15:26:44.139Z,101376.44
2023-05-01T15:28:45.671Z,101379.03
2023-05-01T15:30:47.596Z,101374.44
2023-05-01T15:32:49.179Z,101369.38
2023-05-01T15:34:56.600Z,101372.84
2023-05-01T15:36:58.437Z,101378.88
2023-05-01T15:39:00.078Z,101381.13
2023-05-01T15:41:01.566Z,101378.25
2023-05-01T15:43:05.420Z,101377.50
2023-05-01T15:45:07.433Z,101379.91
2023-05-01T15:47:08.964Z,101379.53
2023-05-01T15:49:10.491Z,101383.09
2023-05-01T15:51:12.078Z,101382.75
2023-05-01T15:53:14.152Z,101379.56
2023-05-01T15:55:15.977Z,101385.28
2023-05-01T15:57:20.296Z,101381.56
2023-05-01T15:59:21.815Z,101386.94
2023-05-01T16:01:23.414Z,101387.53
2023-05-01T16:03:25.068Z,101393.31
2023-05-01T16:05:26.749Z,101392.53
2023-05-01T16:07:29.608Z,101391.72
2023-05-01T16:09:31.830Z,101400.38
2023-05-01T16:11:33.702Z,101397.69
2023-05-01T16:13:39.348Z,101407.03
2023-05-01T16:15:40.898Z,101402.09
2023-05-01T16:17:46.651Z,101416.16
2023-05-01T16:19:49.333Z,101410.56
2023-05-01T16:21:50.904Z,101417.09
2023-05-01T16:23:55.303Z,101418.72
2023-05-01T16:25:56.870Z,101415.13
2023-05-01T16:27:58.666Z,101421.84
2023-05-01T16:30:00.558Z,101421.53
2023-05-01T16:32:05.718Z,101420.19
2023-05-01T16:34:10.873Z,101424.16
2023-05-01T16:36:16.280Z,101413.69
2023-05-01T16:38:18.426Z,101419.41
2023-05-01T16:40:21.559Z,101420.81
2023-05-01T16:42:23.222Z,101428.44
2023-05-01T16:44:24.664Z,101429.13
2023-05-01T16:46:26.526Z,101434.38
2023-05-01T16:48:28.012Z,101431.06
2023-05-01T16:50:29.673Z,101436.53
2023-05-01T16:52:31.152Z,101432.75
2023-05-01T16:54:35.753Z,101440.44
2023-05-01T16:56:38.262Z,101440.50
2023-05-01T16:58:39.809Z,101443.19
2023-05-01T17:00:42.750Z,101446.38
2023-05-01T17:02:49.809Z,101452.13
2023-05-01T17:04:51.787Z,101459.66
2023-05-01T17:06:54.886Z,101454.16
2023-05-01T17:08:56.419Z,101460.59
2023-05-01T17:10:57.993Z,101455.34
2023-05-01T17:13:01.087Z,101462.38
2023-05-01T17:15:02.557Z,101457.50
2023-05-01T17:17:07.254Z,101457.38
2023-05-01T17:19:10.725Z,101462.59
2023-05-01T17:21:12.278Z,101463.19
2023-05-01T17:23:13.760Z,101462.03
2023-05-01T17:25:15.294Z,101474.78
2023-05-01T17:27:16.871Z,101474.44
2023-05-01T17:29:18.398Z,101480.53
2023-05-01T17:31:21.865Z,101479.66
2023-05-01T17:33:24.130Z,101486.59
2023-05-01T17:35:26.374Z,101482.03
2023-05-01T17:37:27.944Z,101484.81
2023-05-01T17:39:29.463Z,101491.81
2023-05-01T17:41:31.165Z,101493.81
2023-05-01T17:43:32.641Z,101492.28
2023-05-01T17:45:34.183Z,101497.81
2023-05-01T17:47:36.564Z,101497.91
2023-05-01T17:49:38.271Z,101496.66
2023-05-01T17:51:39.994Z,101500.72
2023-05-01T17:53:42.106Z,101499.66
2023-05-01T17:55:43.566Z,101507.88
2023-05-01T17:57:46.393Z,101510.44
2023-05-01T17:59:47.910Z,101509.97
2023-05-01T18:01:49.541Z,101519.63
2023-05-01T18:03:51.334Z,101515.53
2023-05-01T18:05:53.035Z,101508.72
2023-05-01T18:07:54.488Z,101517.31
2023-05-01T18:09:57.188Z,101515.13
2023-05-01T18:11:58.773Z,101512.91
2023-05-01T18:14:00.520Z,101518.53
2023-05-01T18:16:02.042Z,101522.63
2023-05-01T18:18:03.843Z,101522.06
2023-05-01T18:20:05.997Z,101522.88
2023-05-01T18:22:07.826Z,101525.03
2023-05-01T18:24:09.307Z,101521.13
2023-05-01T18:26:10.827Z,101526.53
2023-05-01T18:28:12.799Z,101520.53
2023-05-01T18:30:14.884Z,101523.47
2023-05-01T18:32:16.460Z,101530.81
2023-05-01T18:34:19.187Z,101526.78
2023-05-01T18:36:20.698Z,101531.34
2023-05-01T18:38:22.249Z,101535.16
2023-05-01T18:40:23.727Z,101537.22
2023-05-01T18:42:25.362Z,101543.59
2023-05-01T18:44:26.894Z,101540.50
2023-05-01T18:46:28.525Z,101537.94
2023-05-01T18:48:30.123Z,101537.19
2023-05-01T18:50:31.880Z,101530.28
2023-05-01T18:52:33.458Z,101535.72
2023-05-01T18:54:34.956Z,101533.19
2023-05-01T18:56:36.424Z,101532.63
2023-05-01T18:58:39.753Z,101537.19
2023-05-01T19:00:41.262Z,101531.09
2023-05-01T19:02:44.637Z,101542.03
2023-05-01T19:06:50.821Z,101552.00
2023-05-01T19:08:52.801Z,101547.75
2023-05-01T19:10:54.267Z,101548.75
2023-05-01T19:12:55.811Z,101548.03
2023-05-01T19:14:57.288Z,101549.88
2023-05-01T19:16:58.776Z,101551.66
2023-05-01T19:19:00.289Z,101548.03
2023-05-01T19:21:01.758Z,101557.75
2023-05-01T19:23:03.382Z,101560.59
2023-05-01T19:25:05.317Z,101569.53
2023-05-01T19:27:06.895Z,101569.56
2023-05-01T19:29:08.463Z,101580.19
2023-05-01T19:31:12.442Z,101580.19
2023-05-01T19:33:15.885Z,101578.50
2023-05-01T19:35:17.524Z,101576.78
2023-05-01T19:37:19.180Z,101576.78
2023-05-01T19:39:20.856Z,101579.44
2023-05-01T19:41:22.465Z,101582.91
2023-05-01T19:43:23.929Z,101578.47
2023-05-01T19:45:25.482Z,101585.50
2023-05-01T19:47:27.118Z,101582.13
2023-05-01T19:49:28.924Z,101581.63
2023-05-01T19:51:31.434Z,101580.09
2023-05-01T19:53:32.970Z,101572.47
2023-05-01T19:55:34.484Z,101578.91
2023-05-01T19:57:36.000Z,101581.88
2023-05-01T19:59:39.074Z,101574.94
2023-05-01T20:01:40.634Z,101578.53
2023-05-01T20:03:42.212Z,101580.53
2023-05-01T20:05:43.916Z,101578.91
2023-05-01T20:07:45.413Z,101582.53
2023-05-01T20:09:47.306Z,101591.38
2023-05-01T20:11:48.772Z,101589.63
2023-05-01T20:13:50.225Z,101592.31
2023-05-01T20:15:51.912Z,101592.38
2023-05-01T20:17:53.493Z,101599.41
2023-05-01T20:19:54.994Z,101590.66
2023-05-01T20:21:56.615Z,101602.41
2023-05-01T20:23:58.389Z,101595.41
2023-05-01T20:26:01.274Z,101595.56
2023-05-01T20:28:03.364Z,101603.47
2023-05-01T20:30:12.508Z,101602.69
2023-05-01T20:32:14.007Z,101609.97
2023-05-01T20:34:15.459Z,101610.91
2023-05-01T20:36:17.343Z,101617.03
2023-05-01T20:38:18.862Z,101611.59
2023-05-01T20:40:20.394Z,101615.13
2023-05-01T20:42:22.361Z,101609.81
2023-05-01T20:44:23.850Z,101622.22
2023-05-01T20:46:25.450Z,101618.69
2023-05-01T20:48:27.575Z,101618.69
2023-05-01T20:50:29.268Z,101621.16
2023-05-01T20:52:30.788Z,101615.78
2023-05-01T20:54:32.924Z,101621.09
2023-05-01T20:56:34.435Z,101623.94
2023-05-01T20:58:36.090Z,101635.53
2023-05-01T21:00:37.620Z,101629.44
2023-05-01T21:02:40.407Z,101624.19
2023-05-01T21:04:42.827Z,101622.38
2023-05-01T21:06:44.321Z,101623.22
2023-05-01T21:08:46.209Z,101624.16
2023-05-01T21:10:47.748Z,101622.38
2023-05-01T21:12:49.588Z,101621.41
2023-05-01T21:14:51.041Z,101625.81
2023-05-01T21:16:52.787Z,101618.81
2023-05-01T21:18:54.268Z,101624.16
2023-05-01T21:20:55.836Z,101628.56
2023-05-01T21:22:57.335Z,101627.81
2023-05-01T21:24:59.944Z,101630.50
2023-05-01T21:27:02.953Z,101637.63
2023-05-01T21:29:04.440Z,101635.84
2023-05-01T21:31:05.961Z,101633.19
2023-05-01T21:33:13.668Z,101635.97
2023-05-01T21:35:17.950Z,101629.88
2023-05-01T21:37:20.784Z,101631.63
2023-05-01T21:39:24.607Z,101632.47
2023-05-01T21:41:26.562Z,101639.63
2023-05-01T21:43:28.351Z,101641.47
2023-05-01T21:45:30.025Z,101633.59
2023-05-01T21:47:37.035Z,101636.28
2023-05-01T21:49:39.875Z,101646.94
2023-05-01T21:51:41.414Z,101643.53
2023-05-01T21:53:43.146Z,101643.56
2023-05-01T21:55:46.561Z,101652.56
2023-05-01T21:57:50.015Z,101651.13
2023-05-01T21:59:52.324Z,101653.03
2023-05-01T22:01:53.815Z,101653.09
2023-05-01T22:03:55.713Z,101653.09
2023-05-01T22:05:57.548Z,101657.50
2023-05-01T22:08:00.405Z,101662.72
2023-05-01T22:10:02.115Z,101655.69
2023-05-01T22:12:03.869Z,101664.50
2023-05-01T22:14:05.424Z,101660.09
2023-05-01T22:16:07.463Z,101666.28
2023-05-01T22:18:09.059Z,101672.47
2023-05-01T22:20:11.288Z,101666.38
2023-05-01T22:22:12.754Z,101669.97
2023-05-01T22:24:14.293Z,101671.69
2023-05-01T22:26:15.758Z,101678.84
2023-05-01T22:28:17.937Z,101673.63
2023-05-01T22:30:19.962Z,101684.25
2023-05-01T22:32:21.675Z,101682.50
2023-05-01T22:34:23.596Z,101682.50
2023-05-01T22:36:25.069Z,101682.53
2023-05-01T22:38:26.703Z,101683.44
2023-05-01T22:40:29.073Z,101690.53
2023-05-01T22:42:30.663Z,101681.75
2023-05-01T22:44:33.236Z,101686.16
2023-05-01T22:46:34.790Z,101685.28
2023-05-01T22:48:36.253Z,101676.47
2023-05-01T22:50:37.716Z,101684.41
2023-05-01T22:52:40.216Z,101685.31
2023-05-01T22:54:41.738Z,101690.69
2023-05-01T22:56:43.779Z,101689.81
2023-05-01T22:58:45.483Z,101692.44
2023-05-01T23:00:46.934Z,101688.97
2023-05-01T23:02:48.444Z,101695.22
2023-05-01T23:04:51.136Z,101697.84
2023-05-01T23:06:52.765Z,101704.03
2023-05-01T23:08:54.436Z,101697.88
2023-05-01T23:10:56.183Z,101701.34
2023-05-01T23:12:57.901Z,101700.47
2023-05-01T23:14:59.420Z,101704.09
2023-05-01T23:17:01.048Z,101708.50
2023-05-01T23:19:02.499Z,101718.25
2023-05-01T23:21:04.919Z,101711.31
2023-05-01T23:23:12.096Z,101708.66
2023-05-01T23:25:16.749Z,101713.13
2023-05-01T23:27:19.626Z,101714.06
2023-05-01T23:29:21.236Z,101717.63
2023-05-01T23:31:27.118Z,101717.66